< < Back
Terminal Aerodrome Forecast


Current Version              Previous Versions:   1  2  3  4  5  6  7  8  9  

Terminal Aerodrome Forecast

702
FTUS42 KGSP 270634 AAA
TAFAND
TAF AMD
KAND 270634Z 2707/2806 VRB03KT P6SM OVC016
     FM270900 00000KT 5SM BR BKN016
     FM271300 02003KT P6SM BKN045
     FM280500 05007KT P6SM BKN045=

Latest METAR

051
SAUS70 KWBC 280300
MTRAND
METAR KAND 280156Z AUTO 00000KT 10SM CLR 03/M01 A3039 RMK AO2 SLP294
T00281011


USA.gov is the U.S. government's official web portal to all federal, state and local government web resources and services.